sensor_id;sensor_type;location;lat;lon;timestamp;temperature;humidity
17619;DHT22;8928;51.678;6.074;2023-06-26T00:01:06;19.70;99.90
17619;DHT22;8928;51.678;6.074;2023-06-26T00:03:53;19.70;99.90
17619;DHT22;8928;51.678;6.074;2023-06-26T00:06:40;19.70;99.90
17619;DHT22;8928;51.678;6.074;2023-06-26T00:09:28;19.70;99.90
17619;DHT22;8928;51.678;6.074;2023-06-26T00:12:15;19.70;99.90
17619;DHT22;8928;51.678;6.074;2023-06-26T00:15:02;19.60;99.90
17619;DHT22;8928;51.678;6.074;2023-06-26T00:17:50;19.70;99.90
17619;DHT22;8928;51.678;6.074;2023-06-26T00:20:37;19.60;99.90
17619;DHT22;8928;51.678;6.074;2023-06-26T00:23:24;19.60;99.90
17619;DHT22;8928;51.678;6.074;2023-06-26T00:26:13;19.60;99.90
17619;DHT22;8928;51.678;6.074;2023-06-26T00:29:00;19.50;99.90
17619;DHT22;8928;51.678;6.074;2023-06-26T00:31:47;19.50;99.90
17619;DHT22;8928;51.678;6.074;2023-06-26T00:34:35;19.50;99.90
17619;DHT22;8928;51.678;6.074;2023-06-26T00:37:22;19.40;99.90
17619;DHT22;8928;51.678;6.074;2023-06-26T00:40:10;19.40;99.90
17619;DHT22;8928;51.678;6.074;2023-06-26T00:42:57;19.40;99.90
17619;DHT22;8928;51.678;6.074;2023-06-26T00:45:44;19.40;99.90
17619;DHT22;8928;51.678;6.074;2023-06-26T00:48:31;19.30;99.90
17619;DHT22;8928;51.678;6.074;2023-06-26T00:51:20;19.20;99.90
17619;DHT22;8928;51.678;6.074;2023-06-26T00:54:07;19.20;99.90
17619;DHT22;8928;51.678;6.074;2023-06-26T00:56:54;19.10;99.90
17619;DHT22;8928;51.678;6.074;2023-06-26T00:59:41;19.10;99.90
17619;DHT22;8928;51.678;6.074;2023-06-26T01:02:28;19.00;99.90
17619;DHT22;8928;51.678;6.074;2023-06-26T01:05:20;19.00;99.90
17619;DHT22;8928;51.678;6.074;2023-06-26T01:08:09;19.00;99.90
17619;DHT22;8928;51.678;6.074;2023-06-26T01:10:56;18.90;99.90
17619;DHT22;8928;51.678;6.074;2023-06-26T01:13:43;18.90;99.90
17619;DHT22;8928;51.678;6.074;2023-06-26T01:16:31;18.90;99.90
17619;DHT22;8928;51.678;6.074;2023-06-26T01:19:20;18.90;99.90
17619;DHT22;8928;51.678;6.074;2023-06-26T01:22:18;19.00;99.90
17619;DHT22;8928;51.678;6.074;2023-06-26T01:25:14;18.90;99.90
17619;DHT22;8928;51.678;6.074;2023-06-26T01:28:05;18.90;99.90
17619;DHT22;8928;51.678;6.074;2023-06-26T01:30:54;18.80;99.90
17619;DHT22;8928;51.678;6.074;2023-06-26T01:33:41;18.80;99.90
17619;DHT22;8928;51.678;6.074;2023-06-26T01:36:29;18.80;99.90
17619;DHT22;8928;51.678;6.074;2023-06-26T01:39:18;18.80;99.90
17619;DHT22;8928;51.678;6.074;2023-06-26T01:42:06;18.80;99.90
17619;DHT22;8928;51.678;6.074;2023-06-26T01:44:55;18.70;99.90
17619;DHT22;8928;51.678;6.074;2023-06-26T01:47:46;18.80;99.90
17619;DHT22;8928;51.678;6.074;2023-06-26T01:50:37;18.80;99.90
17619;DHT22;8928;51.678;6.074;2023-06-26T01:53:25;18.90;99.90
17619;DHT22;8928;51.678;6.074;2023-06-26T01:56:18;19.00;99.90
17619;DHT22;8928;51.678;6.074;2023-06-26T01:59:06;19.10;99.90
17619;DHT22;8928;51.678;6.074;2023-06-26T02:01:55;19.30;99.90
17619;DHT22;8928;51.678;6.074;2023-06-26T02:04:42;19.60;99.90
17619;DHT22;8928;51.678;6.074;2023-06-26T02:07:29;19.80;99.90
17619;DHT22;8928;51.678;6.074;2023-06-26T02:10:16;20.00;99.90
17619;DHT22;8928;51.678;6.074;2023-06-26T02:13:04;20.10;99.90
17619;DHT22;8928;51.678;6.074;2023-06-26T02:15:51;20.20;99.90
17619;DHT22;8928;51.678;6.074;2023-06-26T02:18:39;20.60;99.90
17619;DHT22;8928;51.678;6.074;2023-06-26T02:21:27;20.70;99.90
17619;DHT22;8928;51.678;6.074;2023-06-26T02:24:14;20.70;99.90
17619;DHT22;8928;51.678;6.074;2023-06-26T02:27:01;20.80;99.90
17619;DHT22;8928;51.678;6.074;2023-06-26T02:29:48;20.90;99.90
17619;DHT22;8928;51.678;6.074;2023-06-26T02:32:35;20.90;99.90
17619;DHT22;8928;51.678;6.074;2023-06-26T02:35:23;20.80;99.90
17619;DHT22;8928;51.678;6.074;2023-06-26T02:38:10;20.80;99.90
17619;DHT22;8928;51.678;6.074;2023-06-26T02:40:58;20.70;99.90
17619;DHT22;8928;51.678;6.074;2023-06-26T02:43:45;20.70;99.90
17619;DHT22;8928;51.678;6.074;2023-06-26T02:46:32;20.60;99.90
17619;DHT22;8928;51.678;6.074;2023-06-26T02:49:20;20.60;99.90
17619;DHT22;8928;51.678;6.074;2023-06-26T02:52:08;20.50;99.90
17619;DHT22;8928;51.678;6.074;2023-06-26T02:54:55;20.50;99.90
17619;DHT22;8928;51.678;6.074;2023-06-26T02:57:42;20.40;99.90
17619;DHT22;8928;51.678;6.074;2023-06-26T03:00:29;20.40;99.90
17619;DHT22;8928;51.678;6.074;2023-06-26T03:03:16;20.40;99.90
17619;DHT22;8928;51.678;6.074;2023-06-26T03:06:03;20.30;99.90
17619;DHT22;8928;51.678;6.074;2023-06-26T03:08:52;20.30;99.90
17619;DHT22;8928;51.678;6.074;2023-06-26T03:11:39;20.30;99.90
17619;DHT22;8928;51.678;6.074;2023-06-26T03:14:26;20.30;99.90
17619;DHT22;8928;51.678;6.074;2023-06-26T03:17:14;20.20;99.90
17619;DHT22;8928;51.678;6.074;2023-06-26T03:20:01;20.10;99.90
17619;DHT22;8928;51.678;6.074;2023-06-26T03:22:52;20.10;99.90
17619;DHT22;8928;51.678;6.074;2023-06-26T03:25:41;20.10;99.90
17619;DHT22;8928;51.678;6.074;2023-06-26T03:28:28;20.00;99.90
17619;DHT22;8928;51.678;6.074;2023-06-26T03:31:16;20.10;99.90
17619;DHT22;8928;51.678;6.074;2023-06-26T03:34:04;20.10;99.90
17619;DHT22;8928;51.678;6.074;2023-06-26T03:36:51;20.10;99.90
17619;DHT22;8928;51.678;6.074;2023-06-26T03:39:38;20.10;99.90
17619;DHT22;8928;51.678;6.074;2023-06-26T03:42:26;20.10;99.90
17619;DHT22;8928;51.678;6.074;2023-06-26T03:45:14;20.00;99.90
17619;DHT22;8928;51.678;6.074;2023-06-26T03:48:01;20.00;99.90
17619;DHT22;8928;51.678;6.074;2023-06-26T03:50:48;20.10;99.90
17619;DHT22;8928;51.678;6.074;2023-06-26T03:53:35;20.00;99.90
17619;DHT22;8928;51.678;6.074;2023-06-26T03:56:22;20.00;99.90
17619;DHT22;8928;51.678;6.074;2023-06-26T03:59:11;20.10;99.90
17619;DHT22;8928;51.678;6.074;2023-06-26T04:01:58;20.10;99.90
17619;DHT22;8928;51.678;6.074;2023-06-26T04:04:45;20.00;99.90
17619;DHT22;8928;51.678;6.074;2023-06-26T04:07:32;20.00;99.90
17619;DHT22;8928;51.678;6.074;2023-06-26T04:10:20;20.00;99.90
17619;DHT22;8928;51.678;6.074;2023-06-26T04:13:07;20.00;99.90
17619;DHT22;8928;51.678;6.074;2023-06-26T04:15:55;19.90;99.90
17619;DHT22;8928;51.678;6.074;2023-06-26T04:18:42;19.90;99.90
17619;DHT22;8928;51.678;6.074;2023-06-26T04:21:29;19.90;99.90
17619;DHT22;8928;51.678;6.074;2023-06-26T04:24:17;19.90;99.90
17619;DHT22;8928;51.678;6.074;2023-06-26T04:27:04;20.10;99.90
17619;DHT22;8928;51.678;6.074;2023-06-26T04:29:52;20.10;99.90
17619;DHT22;8928;51.678;6.074;2023-06-26T04:32:40;20.10;99.90
17619;DHT22;8928;51.678;6.074;2023-06-26T04:35:27;20.10;99.90
17619;DHT22;8928;51.678;6.074;2023-06-26T04:38:14;20.10;99.90
17619;DHT22;8928;51.678;6.074;2023-06-26T04:41:02;20.10;99.90
17619;DHT22;8928;51.678;6.074;2023-06-26T04:43:49;20.00;99.90
17619;DHT22;8928;51.678;6.074;2023-06-26T04:46:37;19.90;99.90
17619;DHT22;8928;51.678;6.074;2023-06-26T04:49:28;19.80;99.90
17619;DHT22;8928;51.678;6.074;2023-06-26T04:52:15;19.80;99.90
17619;DHT22;8928;51.678;6.074;2023-06-26T04:55:03;19.70;99.90
17619;DHT22;8928;51.678;6.074;2023-06-26T04:57:50;19.70;99.90
17619;DHT22;8928;51.678;6.074;2023-06-26T05:00:37;19.70;99.90
17619;DHT22;8928;51.678;6.074;2023-06-26T05:03:28;19.70;99.90
17619;DHT22;8928;51.678;6.074;2023-06-26T05:06:16;19.70;99.90
17619;DHT22;8928;51.678;6.074;2023-06-26T05:09:03;19.70;99.90
17619;DHT22;8928;51.678;6.074;2023-06-26T05:11:51;19.70;99.90
17619;DHT22;8928;51.678;6.074;2023-06-26T05:14:38;19.70;99.90
17619;DHT22;8928;51.678;6.074;2023-06-26T05:17:25;19.70;99.90
17619;DHT22;8928;51.678;6.074;2023-06-26T05:20:13;19.70;99.90
17619;DHT22;8928;51.678;6.074;2023-06-26T05:23:01;19.80;99.90
17619;DHT22;8928;51.678;6.074;2023-06-26T05:25:49;19.90;99.90
17619;DHT22;8928;51.678;6.074;2023-06-26T05:28:37;19.90;99.90
17619;DHT22;8928;51.678;6.074;2023-06-26T05:31:24;20.00;99.90
17619;DHT22;8928;51.678;6.074;2023-06-26T05:34:13;20.10;99.90
17619;DHT22;8928;51.678;6.074;2023-06-26T05:37:01;20.10;99.90
17619;DHT22;8928;51.678;6.074;2023-06-26T05:39:51;20.10;99.90
17619;DHT22;8928;51.678;6.074;2023-06-26T05:42:38;20.20;99.90
17619;DHT22;8928;51.678;6.074;2023-06-26T05:45:25;20.30;99.90
17619;DHT22;8928;51.678;6.074;2023-06-26T05:48:12;20.40;99.90
17619;DHT22;8928;51.678;6.074;2023-06-26T05:51:00;20.40;99.90
17619;DHT22;8928;51.678;6.074;2023-06-26T05:53:48;20.50;99.90
17619;DHT22;8928;51.678;6.074;2023-06-26T05:56:37;20.50;99.90
17619;DHT22;8928;51.678;6.074;2023-06-26T05:59:26;20.60;99.90
17619;DHT22;8928;51.678;6.074;2023-06-26T06:02:13;20.70;99.90
17619;DHT22;8928;51.678;6.074;2023-06-26T06:05:00;20.80;99.90
17619;DHT22;8928;51.678;6.074;2023-06-26T06:07:47;21.00;99.90
17619;DHT22;8928;51.678;6.074;2023-06-26T06:10:35;21.20;99.90
17619;DHT22;8928;51.678;6.074;2023-06-26T06:13:23;21.00;99.90
17619;DHT22;8928;51.678;6.074;2023-06-26T06:16:10;20.80;99.90
17619;DHT22;8928;51.678;6.074;2023-06-26T06:18:57;20.70;99.90
17619;DHT22;8928;51.678;6.074;2023-06-26T06:21:44;20.80;99.90
17619;DHT22;8928;51.678;6.074;2023-06-26T06:24:31;20.80;99.90
17619;DHT22;8928;51.678;6.074;2023-06-26T06:27:18;20.80;99.90
17619;DHT22;8928;51.678;6.074;2023-06-26T06:30:08;20.70;99.90
17619;DHT22;8928;51.678;6.074;2023-06-26T06:32:56;20.80;99.90
17619;DHT22;8928;51.678;6.074;2023-06-26T06:35:43;21.00;99.90
17619;DHT22;8928;51.678;6.074;2023-06-26T06:38:30;21.00;99.90
17619;DHT22;8928;51.678;6.074;2023-06-26T06:41:17;21.10;99.90
17619;DHT22;8928;51.678;6.074;2023-06-26T06:44:04;21.10;99.90
17619;DHT22;8928;51.678;6.074;2023-06-26T06:46:54;21.00;99.90
17619;DHT22;8928;51.678;6.074;2023-06-26T06:49:41;21.10;99.90
17619;DHT22;8928;51.678;6.074;2023-06-26T06:52:28;21.10;99.90
17619;DHT22;8928;51.678;6.074;2023-06-26T06:55:15;21.10;99.90
17619;DHT22;8928;51.678;6.074;2023-06-26T06:58:02;21.10;99.90
17619;DHT22;8928;51.678;6.074;2023-06-26T07:00:50;21.20;99.90
17619;DHT22;8928;51.678;6.074;2023-06-26T07:03:39;21.40;99.90
17619;DHT22;8928;51.678;6.074;2023-06-26T07:06:26;21.40;99.90
17619;DHT22;8928;51.678;6.074;2023-06-26T07:09:13;21.50;99.90
17619;DHT22;8928;51.678;6.074;2023-06-26T07:12:00;21.50;99.90
17619;DHT22;8928;51.678;6.074;2023-06-26T07:14:48;21.80;99.90
17619;DHT22;8928;51.678;6.074;2023-06-26T07:17:35;21.90;99.90
17619;DHT22;8928;51.678;6.074;2023-06-26T07:20:24;21.90;99.90
17619;DHT22;8928;51.678;6.074;2023-06-26T07:23:12;22.10;99.90
17619;DHT22;8928;51.678;6.074;2023-06-26T07:25:59;22.10;99.90
17619;DHT22;8928;51.678;6.074;2023-06-26T07:28:46;22.20;99.90
17619;DHT22;8928;51.678;6.074;2023-06-26T07:31:34;22.50;99.90
17619;DHT22;8928;51.678;6.074;2023-06-26T07:34:21;22.50;99.90
17619;DHT22;8928;51.678;6.074;2023-06-26T07:37:10;22.50;99.90
17619;DHT22;8928;51.678;6.074;2023-06-26T07:39:57;22.50;99.90
17619;DHT22;8928;51.678;6.074;2023-06-26T07:42:44;22.50;99.90
17619;DHT22;8928;51.678;6.074;2023-06-26T07:45:32;22.40;99.90
17619;DHT22;8928;51.678;6.074;2023-06-26T07:48:19;22.30;99.90
17619;DHT22;8928;51.678;6.074;2023-06-26T07:51:06;22.30;99.90
17619;DHT22;8928;51.678;6.074;2023-06-26T07:53:54;22.60;99.90
17619;DHT22;8928;51.678;6.074;2023-06-26T07:56:55;22.70;99.90
17619;DHT22;8928;51.678;6.074;2023-06-26T07:59:42;22.40;99.90
17619;DHT22;8928;51.678;6.074;2023-06-26T08:02:29;22.00;99.90
17619;DHT22;8928;51.678;6.074;2023-06-26T08:05:16;22.00;99.90
17619;DHT22;8928;51.678;6.074;2023-06-26T08:08:03;22.30;99.90
17619;DHT22;8928;51.678;6.074;2023-06-26T08:10:52;22.70;99.90
17619;DHT22;8928;51.678;6.074;2023-06-26T08:13:39;23.10;99.90
17619;DHT22;8928;51.678;6.074;2023-06-26T08:16:26;22.90;99.90
17619;DHT22;8928;51.678;6.074;2023-06-26T08:19:14;22.70;99.90
17619;DHT22;8928;51.678;6.074;2023-06-26T08:22:01;22.70;99.90
17619;DHT22;8928;51.678;6.074;2023-06-26T08:24:48;23.00;99.90
17619;DHT22;8928;51.678;6.074;2023-06-26T08:27:37;23.10;99.90
17619;DHT22;8928;51.678;6.074;2023-06-26T08:30:24;23.10;99.90
17619;DHT22;8928;51.678;6.074;2023-06-26T08:33:13;23.00;99.90
17619;DHT22;8928;51.678;6.074;2023-06-26T08:36:00;23.00;99.90
17619;DHT22;8928;51.678;6.074;2023-06-26T08:38:47;23.40;99.90
17619;DHT22;8928;51.678;6.074;2023-06-26T08:41:34;23.70;99.90
17619;DHT22;8928;51.678;6.074;2023-06-26T08:44:23;23.70;99.90
17619;DHT22;8928;51.678;6.074;2023-06-26T08:47:11;23.90;99.90
17619;DHT22;8928;51.678;6.074;2023-06-26T08:50:05;24.20;99.90
17619;DHT22;8928;51.678;6.074;2023-06-26T08:52:57;24.10;99.90
17619;DHT22;8928;51.678;6.074;2023-06-26T08:55:49;23.90;99.90
17619;DHT22;8928;51.678;6.074;2023-06-26T08:58:38;23.70;99.90
17619;DHT22;8928;51.678;6.074;2023-06-26T09:01:27;23.30;99.90
17619;DHT22;8928;51.678;6.074;2023-06-26T09:04:15;23.00;99.90
17619;DHT22;8928;51.678;6.074;2023-06-26T09:07:02;23.00;99.90
17619;DHT22;8928;51.678;6.074;2023-06-26T09:09:49;22.70;99.90
17619;DHT22;8928;51.678;6.074;2023-06-26T09:12:37;22.80;99.90
17619;DHT22;8928;51.678;6.074;2023-06-26T09:15:24;22.70;99.90
17619;DHT22;8928;51.678;6.074;2023-06-26T09:18:13;22.70;99.90
17619;DHT22;8928;51.678;6.074;2023-06-26T09:21:07;22.70;99.90
17619;DHT22;8928;51.678;6.074;2023-06-26T09:23:55;22.90;99.90
17619;DHT22;8928;51.678;6.074;2023-06-26T09:26:42;22.80;99.90
17619;DHT22;8928;51.678;6.074;2023-06-26T09:29:29;22.90;99.90
17619;DHT22;8928;51.678;6.074;2023-06-26T09:32:16;23.10;99.90
17619;DHT22;8928;51.678;6.074;2023-06-26T09:35:06;23.10;99.90
17619;DHT22;8928;51.678;6.074;2023-06-26T09:37:53;23.10;99.90
17619;DHT22;8928;51.678;6.074;2023-06-26T09:40:41;23.40;99.90
17619;DHT22;8928;51.678;6.074;2023-06-26T09:43:28;23.60;99.90
17619;DHT22;8928;51.678;6.074;2023-06-26T09:46:16;23.90;99.90
17619;DHT22;8928;51.678;6.074;2023-06-26T09:49:05;24.30;99.90
17619;DHT22;8928;51.678;6.074;2023-06-26T09:51:54;24.20;99.90
17619;DHT22;8928;51.678;6.074;2023-06-26T09:54:41;23.90;99.90
17619;DHT22;8928;51.678;6.074;2023-06-26T09:57:30;24.20;99.90
17619;DHT22;8928;51.678;6.074;2023-06-26T10:00:18;24.30;99.90
17619;DHT22;8928;51.678;6.074;2023-06-26T10:03:05;24.40;99.90
17619;DHT22;8928;51.678;6.074;2023-06-26T10:05:53;24.30;99.90
17619;DHT22;8928;51.678;6.074;2023-06-26T10:08:42;24.20;99.90
17619;DHT22;8928;51.678;6.074;2023-06-26T10:11:35;24.20;99.90
17619;DHT22;8928;51.678;6.074;2023-06-26T10:14:26;24.50;99.90
17619;DHT22;8928;51.678;6.074;2023-06-26T10:17:16;24.40;99.90
17619;DHT22;8928;51.678;6.074;2023-06-26T10:20:07;24.30;99.90
17619;DHT22;8928;51.678;6.074;2023-06-26T10:22:58;24.40;99.90
17619;DHT22;8928;51.678;6.074;2023-06-26T10:25:51;24.70;99.90
17619;DHT22;8928;51.678;6.074;2023-06-26T10:28:39;24.80;99.90
17619;DHT22;8928;51.678;6.074;2023-06-26T10:31:28;24.50;99.90
17619;DHT22;8928;51.678;6.074;2023-06-26T10:34:15;25.00;99.90
17619;DHT22;8928;51.678;6.074;2023-06-26T10:37:03;25.30;99.90
17619;DHT22;8928;51.678;6.074;2023-06-26T10:39:52;25.10;99.90
17619;DHT22;8928;51.678;6.074;2023-06-26T10:42:41;25.00;99.90
17619;DHT22;8928;51.678;6.074;2023-06-26T10:45:28;25.30;99.90
17619;DHT22;8928;51.678;6.074;2023-06-26T10:48:16;24.90;99.90
17619;DHT22;8928;51.678;6.074;2023-06-26T10:51:13;24.30;99.90
17619;DHT22;8928;51.678;6.074;2023-06-26T10:54:01;24.60;99.90
17619;DHT22;8928;51.678;6.074;2023-06-26T10:56:49;24.60;99.90
17619;DHT22;8928;51.678;6.074;2023-06-26T10:59:40;25.10;99.90
17619;DHT22;8928;51.678;6.074;2023-06-26T11:02:27;25.00;99.90
17619;DHT22;8928;51.678;6.074;2023-06-26T11:05:23;24.40;99.90
17619;DHT22;8928;51.678;6.074;2023-06-26T11:08:11;24.50;99.90
17619;DHT22;8928;51.678;6.074;2023-06-26T11:11:02;25.20;99.90
17619;DHT22;8928;51.678;6.074;2023-06-26T11:13:49;25.60;99.90
17619;DHT22;8928;51.678;6.074;2023-06-26T11:16:39;25.10;99.90
17619;DHT22;8928;51.678;6.074;2023-06-26T11:19:29;25.30;99.90
17619;DHT22;8928;51.678;6.074;2023-06-26T11:22:17;25.20;99.90
17619;DHT22;8928;51.678;6.074;2023-06-26T11:25:07;25.60;99.90
17619;DHT22;8928;51.678;6.074;2023-06-26T11:27:55;25.40;99.90
17619;DHT22;8928;51.678;6.074;2023-06-26T11:30:42;24.90;99.90
17619;DHT22;8928;51.678;6.074;2023-06-26T11:33:30;24.50;99.90
17619;DHT22;8928;51.678;6.074;2023-06-26T11:36:17;25.30;99.90
17619;DHT22;8928;51.678;6.074;2023-06-26T11:39:05;25.60;99.90
17619;DHT22;8928;51.678;6.074;2023-06-26T11:41:53;25.20;99.90
17619;DHT22;8928;51.678;6.074;2023-06-26T11:44:40;25.30;99.90
17619;DHT22;8928;51.678;6.074;2023-06-26T11:47:29;25.60;99.90
17619;DHT22;8928;51.678;6.074;2023-06-26T11:50:17;25.50;99.90
17619;DHT22;8928;51.678;6.074;2023-06-26T11:53:04;25.70;99.90
17619;DHT22;8928;51.678;6.074;2023-06-26T11:55:53;26.40;99.90
17619;DHT22;8928;51.678;6.074;2023-06-26T11:59:00;26.60;99.90
17619;DHT22;8928;51.678;6.074;2023-06-26T12:01:50;26.40;99.90
17619;DHT22;8928;51.678;6.074;2023-06-26T12:04:38;25.60;99.90
17619;DHT22;8928;51.678;6.074;2023-06-26T12:07:28;25.50;99.90
17619;DHT22;8928;51.678;6.074;2023-06-26T12:10:17;25.30;99.90
17619;DHT22;8928;51.678;6.074;2023-06-26T12:13:05;25.00;99.90
17619;DHT22;8928;51.678;6.074;2023-06-26T12:15:52;25.50;99.90
17619;DHT22;8928;51.678;6.074;2023-06-26T12:18:40;26.40;99.90
17619;DHT22;8928;51.678;6.074;2023-06-26T12:21:47;26.40;99.90
17619;DHT22;8928;51.678;6.074;2023-06-26T12:24:39;27.20;99.90
17619;DHT22;8928;51.678;6.074;2023-06-26T12:27:29;26.70;99.90
17619;DHT22;8928;51.678;6.074;2023-06-26T12:30:16;26.40;99.90
17619;DHT22;8928;51.678;6.074;2023-06-26T12:33:03;26.30;99.90
17619;DHT22;8928;51.678;6.074;2023-06-26T12:35:50;26.20;99.90
17619;DHT22;8928;51.678;6.074;2023-06-26T12:38:37;27.00;99.90
17619;DHT22;8928;51.678;6.074;2023-06-26T12:41:25;26.30;99.90
17619;DHT22;8928;51.678;6.074;2023-06-26T12:44:17;25.40;99.90
17619;DHT22;8928;51.678;6.074;2023-06-26T12:47:05;25.40;99.90
17619;DHT22;8928;51.678;6.074;2023-06-26T12:49:53;26.30;99.90
17619;DHT22;8928;51.678;6.074;2023-06-26T12:52:41;27.00;99.90
17619;DHT22;8928;51.678;6.074;2023-06-26T12:55:28;27.40;99.90
17619;DHT22;8928;51.678;6.074;2023-06-26T12:58:16;28.40;99.90
17619;DHT22;8928;51.678;6.074;2023-06-26T13:01:05;28.70;99.90
17619;DHT22;8928;51.678;6.074;2023-06-26T13:03:56;29.20;99.90
17619;DHT22;8928;51.678;6.074;2023-06-26T13:06:43;29.20;97.70
17619;DHT22;8928;51.678;6.074;2023-06-26T13:09:32;29.60;97.40
17619;DHT22;8928;51.678;6.074;2023-06-26T13:12:19;29.00;97.10
17619;DHT22;8928;51.678;6.074;2023-06-26T13:15:09;29.30;97.80
17619;DHT22;8928;51.678;6.074;2023-06-26T13:17:56;29.00;96.40
17619;DHT22;8928;51.678;6.074;2023-06-26T13:20:43;28.80;99.00
17619;DHT22;8928;51.678;6.074;2023-06-26T13:23:31;28.40;98.00
17619;DHT22;8928;51.678;6.074;2023-06-26T13:26:19;26.80;97.90
17619;DHT22;8928;51.678;6.074;2023-06-26T13:29:07;26.20;99.80
17619;DHT22;8928;51.678;6.074;2023-06-26T13:31:55;25.80;99.70
17619;DHT22;8928;51.678;6.074;2023-06-26T13:34:43;26.00;99.90
17619;DHT22;8928;51.678;6.074;2023-06-26T13:37:31;27.40;99.90
17619;DHT22;8928;51.678;6.074;2023-06-26T13:40:20;27.40;99.90
17619;DHT22;8928;51.678;6.074;2023-06-26T13:43:07;28.30;99.90
17619;DHT22;8928;51.678;6.074;2023-06-26T13:45:54;29.30;96.40
17619;DHT22;8928;51.678;6.074;2023-06-26T13:48:43;29.70;97.40
17619;DHT22;8928;51.678;6.074;2023-06-26T13:51:30;30.30;96.00
17619;DHT22;8928;51.678;6.074;2023-06-26T13:54:17;29.60;94.30
17619;DHT22;8928;51.678;6.074;2023-06-26T13:57:04;29.00;92.00
17619;DHT22;8928;51.678;6.074;2023-06-26T13:59:51;26.30;88.10
17619;DHT22;8928;51.678;6.074;2023-06-26T14:02:38;26.50;93.00
17619;DHT22;8928;51.678;6.074;2023-06-26T14:05:27;27.70;90.90
17619;DHT22;8928;51.678;6.074;2023-06-26T14:08:14;29.00;91.40
17619;DHT22;8928;51.678;6.074;2023-06-26T14:11:01;29.20;90.00
17619;DHT22;8928;51.678;6.074;2023-06-26T14:13:48;29.60;90.60
17619;DHT22;8928;51.678;6.074;2023-06-26T14:16:35;29.40;85.30
17619;DHT22;8928;51.678;6.074;2023-06-26T14:19:22;28.70;84.60
17619;DHT22;8928;51.678;6.074;2023-06-26T14:22:11;29.00;87.00
17619;DHT22;8928;51.678;6.074;2023-06-26T14:24:58;28.90;80.90
17619;DHT22;8928;51.678;6.074;2023-06-26T14:27:45;27.70;85.20
17619;DHT22;8928;51.678;6.074;2023-06-26T14:30:32;28.50;85.00
17619;DHT22;8928;51.678;6.074;2023-06-26T14:33:19;29.20;83.80
17619;DHT22;8928;51.678;6.074;2023-06-26T14:36:06;29.30;82.20
17619;DHT22;8928;51.678;6.074;2023-06-26T14:38:54;29.20;83.90
17619;DHT22;8928;51.678;6.074;2023-06-26T14:41:42;29.30;83.80
17619;DHT22;8928;51.678;6.074;2023-06-26T14:44:29;29.40;81.80
17619;DHT22;8928;51.678;6.074;2023-06-26T14:47:17;28.70;85.40
17619;DHT22;8928;51.678;6.074;2023-06-26T14:50:05;29.00;83.90
17619;DHT22;8928;51.678;6.074;2023-06-26T14:52:52;28.40;85.00
17619;DHT22;8928;51.678;6.074;2023-06-26T14:55:40;27.80;87.60
17619;DHT22;8928;51.678;6.074;2023-06-26T14:58:27;28.90;88.90
17619;DHT22;8928;51.678;6.074;2023-06-26T15:01:14;28.60;79.20
17619;DHT22;8928;51.678;6.074;2023-06-26T15:04:02;28.00;80.50
17619;DHT22;8928;51.678;6.074;2023-06-26T15:06:49;27.10;83.00
17619;DHT22;8928;51.678;6.074;2023-06-26T15:09:36;26.90;84.00
17619;DHT22;8928;51.678;6.074;2023-06-26T15:12:24;27.00;84.40
17619;DHT22;8928;51.678;6.074;2023-06-26T15:15:13;28.60;81.00
17619;DHT22;8928;51.678;6.074;2023-06-26T15:18:00;28.50;80.00
17619;DHT22;8928;51.678;6.074;2023-06-26T15:20:47;28.40;75.70
17619;DHT22;8928;51.678;6.074;2023-06-26T15:23:34;28.10;77.30
17619;DHT22;8928;51.678;6.074;2023-06-26T15:26:21;28.70;78.80
17619;DHT22;8928;51.678;6.074;2023-06-26T15:29:09;29.00;76.10
17619;DHT22;8928;51.678;6.074;2023-06-26T15:31:56;29.40;76.80
17619;DHT22;8928;51.678;6.074;2023-06-26T15:34:43;29.90;77.40
17619;DHT22;8928;51.678;6.074;2023-06-26T15:37:30;30.10;74.30
17619;DHT22;8928;51.678;6.074;2023-06-26T15:40:18;28.90;75.80
17619;DHT22;8928;51.678;6.074;2023-06-26T15:43:05;28.10;76.70
17619;DHT22;8928;51.678;6.074;2023-06-26T15:45:53;27.80;77.80
17619;DHT22;8928;51.678;6.074;2023-06-26T15:48:40;27.50;76.80
17619;DHT22;8928;51.678;6.074;2023-06-26T15:51:27;27.10;77.70
17619;DHT22;8928;51.678;6.074;2023-06-26T15:54:14;26.90;79.60
17619;DHT22;8928;51.678;6.074;2023-06-26T15:57:02;26.30;76.90
17619;DHT22;8928;51.678;6.074;2023-06-26T15:59:49;25.70;76.90
17619;DHT22;8928;51.678;6.074;2023-06-26T16:02:38;25.30;78.60
17619;DHT22;8928;51.678;6.074;2023-06-26T16:05:25;25.00;79.50
17619;DHT22;8928;51.678;6.074;2023-06-26T16:08:12;24.80;81.00
17619;DHT22;8928;51.678;6.074;2023-06-26T16:10:59;24.80;81.90
17619;DHT22;8928;51.678;6.074;2023-06-26T16:13:46;24.80;85.00
17619;DHT22;8928;51.678;6.074;2023-06-26T16:16:33;25.70;84.20
17619;DHT22;8928;51.678;6.074;2023-06-26T16:19:22;28.10;84.00
17619;DHT22;8928;51.678;6.074;2023-06-26T16:22:09;29.40;79.90
17619;DHT22;8928;51.678;6.074;2023-06-26T16:24:56;30.30;78.00
17619;DHT22;8928;51.678;6.074;2023-06-26T16:27:43;30.70;75.90
17619;DHT22;8928;51.678;6.074;2023-06-26T16:30:30;30.20;75.80
17619;DHT22;8928;51.678;6.074;2023-06-26T16:33:17;30.30;77.40
17619;DHT22;8928;51.678;6.074;2023-06-26T16:36:06;30.10;75.60
17619;DHT22;8928;51.678;6.074;2023-06-26T16:38:53;30.10;75.80
17619;DHT22;8928;51.678;6.074;2023-06-26T16:41:40;30.30;73.50
17619;DHT22;8928;51.678;6.074;2023-06-26T16:44:27;30.50;73.20
17619;DHT22;8928;51.678;6.074;2023-06-26T16:47:14;31.20;72.20
17619;DHT22;8928;51.678;6.074;2023-06-26T16:50:03;31.20;71.50
17619;DHT22;8928;51.678;6.074;2023-06-26T16:52:51;31.40;70.60
17619;DHT22;8928;51.678;6.074;2023-06-26T16:55:38;31.30;71.50
17619;DHT22;8928;51.678;6.074;2023-06-26T16:58:25;30.30;67.60
17619;DHT22;8928;51.678;6.074;2023-06-26T17:01:12;29.90;68.40
17619;DHT22;8928;51.678;6.074;2023-06-26T17:03:59;30.30;69.50
17619;DHT22;8928;51.678;6.074;2023-06-26T17:06:46;30.70;67.50
17619;DHT22;8928;51.678;6.074;2023-06-26T17:09:35;30.90;65.60
17619;DHT22;8928;51.678;6.074;2023-06-26T17:12:22;30.70;66.00
17619;DHT22;8928;51.678;6.074;2023-06-26T17:15:11;30.40;64.80
17619;DHT22;8928;51.678;6.074;2023-06-26T17:17:58;30.40;65.90
17619;DHT22;8928;51.678;6.074;2023-06-26T17:20:45;30.70;67.80
17619;DHT22;8928;51.678;6.074;2023-06-26T17:23:32;30.80;65.60
17619;DHT22;8928;51.678;6.074;2023-06-26T17:26:21;30.80;63.20
17619;DHT22;8928;51.678;6.074;2023-06-26T17:29:08;30.40;64.50
17619;DHT22;8928;51.678;6.074;2023-06-26T17:31:55;30.50;63.60
17619;DHT22;8928;51.678;6.074;2023-06-26T17:34:42;30.60;66.20
17619;DHT22;8928;51.678;6.074;2023-06-26T17:37:29;31.30;63.40
17619;DHT22;8928;51.678;6.074;2023-06-26T17:40:16;31.20;63.20
17619;DHT22;8928;51.678;6.074;2023-06-26T17:43:06;31.30;62.50
17619;DHT22;8928;51.678;6.074;2023-06-26T17:45:53;31.00;64.20
17619;DHT22;8928;51.678;6.074;2023-06-26T17:48:40;30.40;61.20
17619;DHT22;8928;51.678;6.074;2023-06-26T17:51:27;30.00;62.10
17619;DHT22;8928;51.678;6.074;2023-06-26T17:54:14;29.90;61.40
17619;DHT22;8928;51.678;6.074;2023-06-26T17:57:01;29.40;62.40